sensor_id;sensor_type;location;lat;lon;timestamp;temperature;humidity
8114;DHT22;4099;52.684;9.918;2023-03-13T00:02:58;5.70;99.90
8114;DHT22;4099;52.684;9.918;2023-03-13T00:08:00;5.70;99.90
8114;DHT22;4099;52.684;9.918;2023-03-13T00:13:02;5.90;99.90
8114;DHT22;4099;52.684;9.918;2023-03-13T00:18:05;6.10;99.90
8114;DHT22;4099;52.684;9.918;2023-03-13T00:23:07;6.20;99.90
8114;DHT22;4099;52.684;9.918;2023-03-13T00:28:09;6.30;99.90
8114;DHT22;4099;52.684;9.918;2023-03-13T00:33:12;6.30;99.90
8114;DHT22;4099;52.684;9.918;2023-03-13T00:38:14;6.30;99.90
8114;DHT22;4099;52.684;9.918;2023-03-13T00:43:15;6.30;99.90
8114;DHT22;4099;52.684;9.918;2023-03-13T00:48:19;6.30;99.90
8114;DHT22;4099;52.684;9.918;2023-03-13T00:53:20;6.30;99.90
8114;DHT22;4099;52.684;9.918;2023-03-13T00:58:24;6.30;99.90
8114;DHT22;4099;52.684;9.918;2023-03-13T01:03:28;6.30;99.90
8114;DHT22;4099;52.684;9.918;2023-03-13T01:08:30;6.40;99.90
8114;DHT22;4099;52.684;9.918;2023-03-13T01:13:33;6.30;99.90
8114;DHT22;4099;52.684;9.918;2023-03-13T01:18:37;6.40;99.90
8114;DHT22;4099;52.684;9.918;2023-03-13T01:23:39;6.40;99.90
8114;DHT22;4099;52.684;9.918;2023-03-13T01:28:44;6.40;99.90
8114;DHT22;4099;52.684;9.918;2023-03-13T01:33:49;6.40;99.90
8114;DHT22;4099;52.684;9.918;2023-03-13T01:38:53;6.40;99.90
8114;DHT22;4099;52.684;9.918;2023-03-13T01:43:55;6.50;99.90
8114;DHT22;4099;52.684;9.918;2023-03-13T01:49:03;6.60;99.90
8114;DHT22;4099;52.684;9.918;2023-03-13T01:54:14;6.60;99.90
8114;DHT22;4099;52.684;9.918;2023-03-13T01:59:22;6.60;99.90
8114;DHT22;4099;52.684;9.918;2023-03-13T02:04:30;6.70;99.90
8114;DHT22;4099;52.684;9.918;2023-03-13T02:09:37;6.70;99.90
8114;DHT22;4099;52.684;9.918;2023-03-13T02:14:42;6.80;99.90
8114;DHT22;4099;52.684;9.918;2023-03-13T02:19:47;6.80;99.90
8114;DHT22;4099;52.684;9.918;2023-03-13T02:24:55;6.70;99.90
8114;DHT22;4099;52.684;9.918;2023-03-13T02:30:02;6.80;99.90
8114;DHT22;4099;52.684;9.918;2023-03-13T02:35:07;6.90;99.90
8114;DHT22;4099;52.684;9.918;2023-03-13T02:40:13;6.90;99.90
8114;DHT22;4099;52.684;9.918;2023-03-13T02:45:18;7.00;99.90
8114;DHT22;4099;52.684;9.918;2023-03-13T02:50:20;6.90;99.90
8114;DHT22;4099;52.684;9.918;2023-03-13T02:55:27;6.90;99.90
8114;DHT22;4099;52.684;9.918;2023-03-13T03:00:31;7.00;99.90
8114;DHT22;4099;52.684;9.918;2023-03-13T03:05:34;7.00;99.90
8114;DHT22;4099;52.684;9.918;2023-03-13T03:10:36;6.90;99.90
8114;DHT22;4099;52.684;9.918;2023-03-13T03:15:40;6.90;99.90
8114;DHT22;4099;52.684;9.918;2023-03-13T03:20:42;6.90;99.90
8114;DHT22;4099;52.684;9.918;2023-03-13T03:25:46;6.90;99.90
8114;DHT22;4099;52.684;9.918;2023-03-13T03:30:50;6.90;99.90
8114;DHT22;4099;52.684;9.918;2023-03-13T03:35:58;6.80;99.90
8114;DHT22;4099;52.684;9.918;2023-03-13T03:41:01;6.80;99.90
8114;DHT22;4099;52.684;9.918;2023-03-13T03:46:06;6.80;99.90
8114;DHT22;4099;52.684;9.918;2023-03-13T03:51:08;6.80;99.90
8114;DHT22;4099;52.684;9.918;2023-03-13T03:56:13;6.80;99.90
8114;DHT22;4099;52.684;9.918;2023-03-13T04:01:22;6.80;99.90
8114;DHT22;4099;52.684;9.918;2023-03-13T04:06:24;6.80;99.90
8114;DHT22;4099;52.684;9.918;2023-03-13T04:11:26;6.80;99.90
8114;DHT22;4099;52.684;9.918;2023-03-13T04:16:31;6.80;99.90
8114;DHT22;4099;52.684;9.918;2023-03-13T04:21:33;6.80;99.90
8114;DHT22;4099;52.684;9.918;2023-03-13T04:26:40;6.80;99.90
8114;DHT22;4099;52.684;9.918;2023-03-13T04:31:43;6.80;99.90
8114;DHT22;4099;52.684;9.918;2023-03-13T04:37:04;6.80;99.90
8114;DHT22;4099;52.684;9.918;2023-03-13T04:42:23;6.80;99.90
8114;DHT22;4099;52.684;9.918;2023-03-13T04:47:37;6.80;99.90
8114;DHT22;4099;52.684;9.918;2023-03-13T04:52:45;6.80;99.90
8114;DHT22;4099;52.684;9.918;2023-03-13T04:58:13;6.80;99.90
8114;DHT22;4099;52.684;9.918;2023-03-13T05:03:21;6.90;99.90
8114;DHT22;4099;52.684;9.918;2023-03-13T05:08:42;6.90;99.90
8114;DHT22;4099;52.684;9.918;2023-03-13T05:14:01;6.90;99.90
8114;DHT22;4099;52.684;9.918;2023-03-13T05:19:24;6.90;99.90
8114;DHT22;4099;52.684;9.918;2023-03-13T05:24:46;7.00;99.90
8114;DHT22;4099;52.684;9.918;2023-03-13T05:30:17;7.00;99.90
8114;DHT22;4099;52.684;9.918;2023-03-13T05:35:37;7.10;99.90
8114;DHT22;4099;52.684;9.918;2023-03-13T05:40:58;7.20;99.90
8114;DHT22;4099;52.684;9.918;2023-03-13T05:46:20;7.20;99.90
8114;DHT22;4099;52.684;9.918;2023-03-13T05:51:30;7.30;99.90
8114;DHT22;4099;52.684;9.918;2023-03-13T05:57:01;7.30;99.90
8114;DHT22;4099;52.684;9.918;2023-03-13T06:02:12;7.40;99.90
8114;DHT22;4099;52.684;9.918;2023-03-13T06:07:19;7.40;99.90
8114;DHT22;4099;52.684;9.918;2023-03-13T06:12:22;7.50;99.90
8114;DHT22;4099;52.684;9.918;2023-03-13T06:17:23;7.60;99.90
8114;DHT22;4099;52.684;9.918;2023-03-13T06:22:27;7.60;99.90
8114;DHT22;4099;52.684;9.918;2023-03-13T06:27:30;7.70;99.90
8114;DHT22;4099;52.684;9.918;2023-03-13T06:32:32;7.80;99.90
8114;DHT22;4099;52.684;9.918;2023-03-13T06:37:35;8.00;99.90
8114;DHT22;4099;52.684;9.918;2023-03-13T06:42:36;8.00;99.90
8114;DHT22;4099;52.684;9.918;2023-03-13T06:47:38;8.10;99.90
8114;DHT22;4099;52.684;9.918;2023-03-13T06:52:41;8.20;99.90
8114;DHT22;4099;52.684;9.918;2023-03-13T06:57:43;8.30;99.90
8114;DHT22;4099;52.684;9.918;2023-03-13T07:02:45;8.30;99.90
8114;DHT22;4099;52.684;9.918;2023-03-13T07:07:48;8.40;99.90
8114;DHT22;4099;52.684;9.918;2023-03-13T07:12:50;8.40;99.90
8114;DHT22;4099;52.684;9.918;2023-03-13T07:17:51;8.50;99.90
8114;DHT22;4099;52.684;9.918;2023-03-13T07:22:55;8.60;99.90
8114;DHT22;4099;52.684;9.918;2023-03-13T07:27:56;8.60;99.90
8114;DHT22;4099;52.684;9.918;2023-03-13T07:33:00;8.70;99.90
8114;DHT22;4099;52.684;9.918;2023-03-13T07:38:03;8.80;99.90
8114;DHT22;4099;52.684;9.918;2023-03-13T07:43:05;8.90;99.90
8114;DHT22;4099;52.684;9.918;2023-03-13T07:48:07;8.90;99.90
8114;DHT22;4099;52.684;9.918;2023-03-13T07:53:10;9.00;99.90
8114;DHT22;4099;52.684;9.918;2023-03-13T07:58:11;9.00;99.90
8114;DHT22;4099;52.684;9.918;2023-03-13T08:03:13;9.20;99.90
8114;DHT22;4099;52.684;9.918;2023-03-13T08:08:16;9.20;99.90
8114;DHT22;4099;52.684;9.918;2023-03-13T08:13:18;9.30;99.90
8114;DHT22;4099;52.684;9.918;2023-03-13T08:18:20;9.50;99.90
8114;DHT22;4099;52.684;9.918;2023-03-13T08:23:23;9.80;99.90
8114;DHT22;4099;52.684;9.918;2023-03-13T08:28:25;10.30;99.90
8114;DHT22;4099;52.684;9.918;2023-03-13T08:33:27;10.70;99.90
8114;DHT22;4099;52.684;9.918;2023-03-13T08:38:31;11.00;99.90
8114;DHT22;4099;52.684;9.918;2023-03-13T08:43:33;11.30;99.90
8114;DHT22;4099;52.684;9.918;2023-03-13T08:48:34;11.60;99.90
8114;DHT22;4099;52.684;9.918;2023-03-13T08:53:38;11.70;99.90
8114;DHT22;4099;52.684;9.918;2023-03-13T08:58:41;11.90;99.90
8114;DHT22;4099;52.684;9.918;2023-03-13T09:03:43;12.00;99.90
8114;DHT22;4099;52.684;9.918;2023-03-13T09:08:46;12.10;99.90
8114;DHT22;4099;52.684;9.918;2023-03-13T09:13:49;12.20;99.90
8114;DHT22;4099;52.684;9.918;2023-03-13T09:18:52;12.30;99.90
8114;DHT22;4099;52.684;9.918;2023-03-13T09:23:55;12.40;99.90
8114;DHT22;4099;52.684;9.918;2023-03-13T09:28:59;12.40;99.90
8114;DHT22;4099;52.684;9.918;2023-03-13T09:34:00;12.40;99.90
8114;DHT22;4099;52.684;9.918;2023-03-13T09:39:04;12.50;99.90
8114;DHT22;4099;52.684;9.918;2023-03-13T09:44:15;12.40;99.90
8114;DHT22;4099;52.684;9.918;2023-03-13T09:49:27;12.50;99.90
8114;DHT22;4099;52.684;9.918;2023-03-13T09:54:36;12.60;99.90
8114;DHT22;4099;52.684;9.918;2023-03-13T09:59:43;12.70;99.90
8114;DHT22;4099;52.684;9.918;2023-03-13T10:04:50;12.70;99.90
8114;DHT22;4099;52.684;9.918;2023-03-13T10:09:53;12.50;99.90
8114;DHT22;4099;52.684;9.918;2023-03-13T10:15:16;12.40;99.90
8114;DHT22;4099;52.684;9.918;2023-03-13T10:20:26;12.20;99.90
8114;DHT22;4099;52.684;9.918;2023-03-13T10:25:31;12.20;99.90
8114;DHT22;4099;52.684;9.918;2023-03-13T10:30:35;12.20;99.90
8114;DHT22;4099;52.684;9.918;2023-03-13T10:35:40;12.50;99.90
8114;DHT22;4099;52.684;9.918;2023-03-13T10:40:43;12.80;99.90
8114;DHT22;4099;52.684;9.918;2023-03-13T10:45:57;13.20;99.90
8114;DHT22;4099;52.684;9.918;2023-03-13T10:50:59;13.60;99.90
8114;DHT22;4099;52.684;9.918;2023-03-13T10:56:09;14.10;99.90
8114;DHT22;4099;52.684;9.918;2023-03-13T11:01:17;14.80;99.90
8114;DHT22;4099;52.684;9.918;2023-03-13T11:06:27;14.70;99.90
8114;DHT22;4099;52.684;9.918;2023-03-13T11:11:43;14.60;99.90
8114;DHT22;4099;52.684;9.918;2023-03-13T11:16:47;14.70;99.90
8114;DHT22;4099;52.684;9.918;2023-03-13T11:21:59;14.50;99.90
8114;DHT22;4099;52.684;9.918;2023-03-13T11:27:12;14.80;99.90
8114;DHT22;4099;52.684;9.918;2023-03-13T11:32:21;15.10;99.90
8114;DHT22;4099;52.684;9.918;2023-03-13T11:37:25;15.20;99.90
8114;DHT22;4099;52.684;9.918;2023-03-13T11:42:43;15.30;99.90
8114;DHT22;4099;52.684;9.918;2023-03-13T11:47:52;15.40;99.90
8114;DHT22;4099;52.684;9.918;2023-03-13T11:53:21;15.40;99.90
8114;DHT22;4099;52.684;9.918;2023-03-13T11:58:37;15.30;99.90
8114;DHT22;4099;52.684;9.918;2023-03-13T12:03:50;15.20;99.90
8114;DHT22;4099;52.684;9.918;2023-03-13T12:08:57;15.40;99.90
8114;DHT22;4099;52.684;9.918;2023-03-13T12:14:05;15.50;99.90
8114;DHT22;4099;52.684;9.918;2023-03-13T12:19:14;15.50;99.90
8114;DHT22;4099;52.684;9.918;2023-03-13T12:24:22;15.40;99.90
8114;DHT22;4099;52.684;9.918;2023-03-13T12:29:42;15.50;99.90
8114;DHT22;4099;52.684;9.918;2023-03-13T12:34:54;15.80;99.90
8114;DHT22;4099;52.684;9.918;2023-03-13T12:40:02;16.00;99.90
8114;DHT22;4099;52.684;9.918;2023-03-13T12:45:13;16.20;99.90
8114;DHT22;4099;52.684;9.918;2023-03-13T12:50:28;16.40;99.90
8114;DHT22;4099;52.684;9.918;2023-03-13T13:01:03;16.70;99.90
8114;DHT22;4099;52.684;9.918;2023-03-13T13:06:08;16.60;99.90
8114;DHT22;4099;52.684;9.918;2023-03-13T13:16:57;16.70;99.90
8114;DHT22;4099;52.684;9.918;2023-03-13T13:27:46;16.90;99.90
8114;DHT22;4099;52.684;9.918;2023-03-13T13:32:51;17.30;99.90
8114;DHT22;4099;52.684;9.918;2023-03-13T13:43:41;17.50;99.90
8114;DHT22;4099;52.684;9.918;2023-03-13T13:48:45;17.10;99.90
8114;DHT22;4099;52.684;9.918;2023-03-13T13:53:47;16.80;99.90
8114;DHT22;4099;52.684;9.918;2023-03-13T13:58:50;17.20;99.90
8114;DHT22;4099;52.684;9.918;2023-03-13T14:04:09;17.50;99.90
8114;DHT22;4099;52.684;9.918;2023-03-13T14:09:19;17.30;99.90
8114;DHT22;4099;52.684;9.918;2023-03-13T14:14:24;17.20;99.90
8114;DHT22;4099;52.684;9.918;2023-03-13T14:19:29;17.20;99.90
8114;DHT22;4099;52.684;9.918;2023-03-13T14:24:31;18.50;99.90
8114;DHT22;4099;52.684;9.918;2023-03-13T14:29:33;18.90;99.90
8114;DHT22;4099;52.684;9.918;2023-03-13T14:34:36;19.40;99.90
8114;DHT22;4099;52.684;9.918;2023-03-13T14:39:42;18.80;99.90
8114;DHT22;4099;52.684;9.918;2023-03-13T14:44:46;18.20;99.90
8114;DHT22;4099;52.684;9.918;2023-03-13T14:49:56;18.20;99.90
8114;DHT22;4099;52.684;9.918;2023-03-13T14:55:00;19.00;99.90
8114;DHT22;4099;52.684;9.918;2023-03-13T15:00:29;18.80;99.80
8114;DHT22;4099;52.684;9.918;2023-03-13T15:05:33;18.00;99.20
8114;DHT22;4099;52.684;9.918;2023-03-13T15:10:36;18.80;99.40
8114;DHT22;4099;52.684;9.918;2023-03-13T15:15:38;18.80;98.30
8114;DHT22;4099;52.684;9.918;2023-03-13T15:20:41;18.10;98.70
8114;DHT22;4099;52.684;9.918;2023-03-13T15:25:42;18.10;98.90
8114;DHT22;4099;52.684;9.918;2023-03-13T15:30:48;18.70;98.50
8114;DHT22;4099;52.684;9.918;2023-03-13T15:35:52;18.20;98.90
8114;DHT22;4099;52.684;9.918;2023-03-13T15:40:53;18.10;99.00
8114;DHT22;4099;52.684;9.918;2023-03-13T15:45:55;18.60;99.20
8114;DHT22;4099;52.684;9.918;2023-03-13T15:51:00;18.10;99.20
8114;DHT22;4099;52.684;9.918;2023-03-13T15:56:11;17.60;99.90
8114;DHT22;4099;52.684;9.918;2023-03-13T16:01:14;17.30;99.90
8114;DHT22;4099;52.684;9.918;2023-03-13T16:06:19;16.90;99.90
8114;DHT22;4099;52.684;9.918;2023-03-13T16:11:28;16.60;99.90
8114;DHT22;4099;52.684;9.918;2023-03-13T16:16:32;16.30;99.90
8114;DHT22;4099;52.684;9.918;2023-03-13T16:21:36;16.20;99.90
8114;DHT22;4099;52.684;9.918;2023-03-13T16:26:39;16.10;99.90
8114;DHT22;4099;52.684;9.918;2023-03-13T16:31:41;16.00;99.90
8114;DHT22;4099;52.684;9.918;2023-03-13T16:36:44;16.00;99.90
8114;DHT22;4099;52.684;9.918;2023-03-13T16:41:46;15.90;99.90
8114;DHT22;4099;52.684;9.918;2023-03-13T16:46:48;16.20;99.90
8114;DHT22;4099;52.684;9.918;2023-03-13T16:51:51;17.40;99.90
8114;DHT22;4099;52.684;9.918;2023-03-13T16:56:53;17.60;99.40
8114;DHT22;4099;52.684;9.918;2023-03-13T17:01:54;16.80;99.90
8114;DHT22;4099;52.684;9.918;2023-03-13T17:06:57;16.00;99.90
8114;DHT22;4099;52.684;9.918;2023-03-13T17:12:00;15.60;99.90
8114;DHT22;4099;52.684;9.918;2023-03-13T17:17:02;15.40;99.90
8114;DHT22;4099;52.684;9.918;2023-03-13T17:22:05;15.20;99.90
8114;DHT22;4099;52.684;9.918;2023-03-13T17:27:11;15.00;99.90
8114;DHT22;4099;52.684;9.918;2023-03-13T17:32:17;14.90;99.90
8114;DHT22;4099;52.684;9.918;2023-03-13T17:37:20;14.80;99.90
8114;DHT22;4099;52.684;9.918;2023-03-13T17:42:22;14.80;99.90
8114;DHT22;4099;52.684;9.918;2023-03-13T17:47:25;14.60;99.90
8114;DHT22;4099;52.684;9.918;2023-03-13T17:52:29;14.40;99.90
8114;DHT22;4099;52.684;9.918;2023-03-13T17:57:30;14.30;99.90
8114;DHT22;4099;52.684;9.918;2023-03-13T18:02:32;14.20;99.90
8114;DHT22;4099;52.684;9.918;2023-03-13T18:07:35;14.30;99.90
8114;DHT22;4099;52.684;9.918;2023-03-13T18:12:43;14.20;99.90
8114;DHT22;4099;52.684;9.918;2023-03-13T18:17:45;14.00;99.90
8114;DHT22;4099;52.684;9.918;2023-03-13T18:22:48;13.80;99.90
8114;DHT22;4099;52.684;9.918;2023-03-13T18:27:49;13.80;99.90
8114;DHT22;4099;52.684;9.918;2023-03-13T18:32:51;13.70;99.90
8114;DHT22;4099;52.684;9.918;2023-03-13T18:37:54;13.50;99.90
8114;DHT22;4099;52.684;9.918;2023-03-13T18:42:56;13.30;99.90
8114;DHT22;4099;52.684;9.918;2023-03-13T18:47:59;13.10;99.90
8114;DHT22;4099;52.684;9.918;2023-03-13T18:53:02;13.10;99.90
8114;DHT22;4099;52.684;9.918;2023-03-13T18:58:04;13.20;99.90
8114;DHT22;4099;52.684;9.918;2023-03-13T19:03:05;13.20;99.90
8114;DHT22;4099;52.684;9.918;2023-03-13T19:08:09;13.40;99.90
8114;DHT22;4099;52.684;9.918;2023-03-13T19:13:11;13.40;99.90
8114;DHT22;4099;52.684;9.918;2023-03-13T19:18:12;13.20;99.90
8114;DHT22;4099;52.684;9.918;2023-03-13T19:23:15;13.20;99.90
8114;DHT22;4099;52.684;9.918;2023-03-13T19:28:18;13.10;99.90
8114;DHT22;4099;52.684;9.918;2023-03-13T19:33:19;12.90;99.90
8114;DHT22;4099;52.684;9.918;2023-03-13T19:38:23;12.80;99.90
8114;DHT22;4099;52.684;9.918;2023-03-13T19:43:25;12.70;99.90
8114;DHT22;4099;52.684;9.918;2023-03-13T19:48:26;12.60;99.90
8114;DHT22;4099;52.684;9.918;2023-03-13T19:53:29;12.50;99.90
8114;DHT22;4099;52.684;9.918;2023-03-13T19:58:31;12.40;99.90
8114;DHT22;4099;52.684;9.918;2023-03-13T20:03:33;12.20;99.90
8114;DHT22;4099;52.684;9.918;2023-03-13T20:08:36;12.00;99.90
8114;DHT22;4099;52.684;9.918;2023-03-13T20:13:38;11.90;99.90
8114;DHT22;4099;52.684;9.918;2023-03-13T20:18:40;11.90;99.90
8114;DHT22;4099;52.684;9.918;2023-03-13T20:23:46;11.90;99.90
8114;DHT22;4099;52.684;9.918;2023-03-13T20:28:49;11.80;99.90
8114;DHT22;4099;52.684;9.918;2023-03-13T20:33:52;11.80;99.90
8114;DHT22;4099;52.684;9.918;2023-03-13T20:38:55;11.80;99.90
8114;DHT22;4099;52.684;9.918;2023-03-13T20:43:56;11.80;99.90
8114;DHT22;4099;52.684;9.918;2023-03-13T20:48:58;11.80;99.90
8114;DHT22;4099;52.684;9.918;2023-03-13T20:54:01;11.80;99.90
8114;DHT22;4099;52.684;9.918;2023-03-13T20:59:03;11.70;99.90
8114;DHT22;4099;52.684;9.918;2023-03-13T21:04:05;11.50;99.90
8114;DHT22;4099;52.684;9.918;2023-03-13T21:09:08;11.40;99.90
8114;DHT22;4099;52.684;9.918;2023-03-13T21:14:10;11.50;99.90
8114;DHT22;4099;52.684;9.918;2023-03-13T21:19:11;11.50;99.90
8114;DHT22;4099;52.684;9.918;2023-03-13T21:24:15;11.60;99.90
8114;DHT22;4099;52.684;9.918;2023-03-13T21:29:16;11.60;99.90
8114;DHT22;4099;52.684;9.918;2023-03-13T21:34:18;11.50;99.90
8114;DHT22;4099;52.684;9.918;2023-03-13T21:39:21;11.50;99.90
8114;DHT22;4099;52.684;9.918;2023-03-13T21:44:23;11.40;99.90
8114;DHT22;4099;52.684;9.918;2023-03-13T21:49:25;11.50;99.90
8114;DHT22;4099;52.684;9.918;2023-03-13T21:54:28;11.40;99.90
8114;DHT22;4099;52.684;9.918;2023-03-13T21:59:29;11.30;99.90
8114;DHT22;4099;52.684;9.918;2023-03-13T22:04:31;11.30;99.90
8114;DHT22;4099;52.684;9.918;2023-03-13T22:09:34;11.30;99.90
8114;DHT22;4099;52.684;9.918;2023-03-13T22:14:39;11.20;99.90
8114;DHT22;4099;52.684;9.918;2023-03-13T22:19:41;11.10;99.90
8114;DHT22;4099;52.684;9.918;2023-03-13T22:24:44;11.10;99.90
8114;DHT22;4099;52.684;9.918;2023-03-13T22:29:46;11.10;99.90
8114;DHT22;4099;52.684;9.918;2023-03-13T22:34:48;11.10;99.90
8114;DHT22;4099;52.684;9.918;2023-03-13T22:39:51;11.00;99.90
8114;DHT22;4099;52.684;9.918;2023-03-13T22:44:53;11.10;99.90
8114;DHT22;4099;52.684;9.918;2023-03-13T22:49:55;11.00;99.90
8114;DHT22;4099;52.684;9.918;2023-03-13T22:54:58;10.90;99.90
8114;DHT22;4099;52.684;9.918;2023-03-13T22:59:59;10.80;99.90
8114;DHT22;4099;52.684;9.918;2023-03-13T23:05:01;10.70;99.90
8114;DHT22;4099;52.684;9.918;2023-03-13T23:10:06;10.60;99.90
8114;DHT22;4099;52.684;9.918;2023-03-13T23:15:09;10.60;99.90
8114;DHT22;4099;52.684;9.918;2023-03-13T23:20:12;10.60;99.90
8114;DHT22;4099;52.684;9.918;2023-03-13T23:25:15;10.70;99.90
8114;DHT22;4099;52.684;9.918;2023-03-13T23:30:17;10.70;99.90
8114;DHT22;4099;52.684;9.918;2023-03-13T23:35:19;10.60;99.90
8114;DHT22;4099;52.684;9.918;2023-03-13T23:40:23;10.60;99.90
8114;DHT22;4099;52.684;9.918;2023-03-13T23:45:25;10.50;99.90
8114;DHT22;4099;52.684;9.918;2023-03-13T23:50:26;10.40;99.90
8114;DHT22;4099;52.684;9.918;2023-03-13T23:55:29;10.30;99.90
